createdAt,value
2019-02-22T00:00:40.102Z,22.37
2019-02-22T00:05:44.312Z,17.50
2019-02-22T00:10:48.341Z,17.47
2019-02-22T00:15:52.512Z,18.57
2019-02-22T00:20:56.804Z,15.33
2019-02-22T00:26:00.925Z,17.73
2019-02-22T00:31:04.955Z,28.30
2019-02-22T00:36:09.030Z,17.97
2019-02-22T00:41:13.541Z,18.63
2019-02-22T00:46:17.746Z,20.93
2019-02-22T00:51:21.806Z,16.10
2019-02-22T00:56:26.311Z,18.13
2019-02-22T01:01:30.540Z,17.70
2019-02-22T01:06:34.614Z,20.03
2019-02-22T01:11:38.795Z,13.90
2019-02-22T01:16:42.810Z,12.23
2019-02-22T01:21:46.951Z,18.67
2019-02-22T01:26:51.133Z,19.37
2019-02-22T01:31:55.270Z,16.50
2019-02-22T01:36:59.235Z,18.07
2019-02-22T01:42:03.360Z,14.80
2019-02-22T01:47:07.500Z,21.93
2019-02-22T01:52:11.670Z,16.10
2019-02-22T01:57:15.738Z,13.37
2019-02-22T02:02:19.871Z,14.93
2019-02-22T02:07:23.941Z,14.73
2019-02-22T02:12:28.071Z,20.37
2019-02-22T02:17:32.409Z,13.73
2019-02-22T02:22:36.950Z,14.70
2019-02-22T02:27:41.226Z,13.83
2019-02-22T02:32:45.460Z,11.70
2019-02-22T02:37:49.587Z,15.27
2019-02-22T02:42:53.926Z,12.27
2019-02-22T02:47:57.988Z,11.63
2019-02-22T02:53:02.279Z,14.93
2019-02-22T02:58:06.505Z,15.03
2019-02-22T03:03:10.737Z,14.00
2019-02-22T03:08:14.862Z,13.83
2019-02-22T03:13:18.990Z,16.50
2019-02-22T03:18:23.130Z,10.77
2019-02-22T03:23:27.144Z,17.73
2019-02-22T03:28:31.282Z,13.17
2019-02-22T03:33:35.298Z,15.43
2019-02-22T03:38:39.321Z,15.37
2019-02-22T03:43:43.553Z,12.53
2019-02-22T03:48:47.894Z,16.20
2019-02-22T03:53:52.141Z,17.33
2019-02-22T03:58:56.240Z,12.60
2019-02-22T04:04:00.439Z,18.23
2019-02-22T04:09:09.432Z,14.53
2019-02-22T04:14:13.540Z,16.47
2019-02-22T04:19:17.673Z,10.17
2019-02-22T04:24:21.746Z,17.20
2019-02-22T04:29:25.819Z,18.20
2019-02-22T04:34:29.951Z,19.87
2019-02-22T04:39:34.076Z,19.30
2019-02-22T04:44:38.091Z,14.53
2019-02-22T04:49:42.136Z,17.70
2019-02-22T04:54:46.303Z,21.10
2019-02-22T04:59:50.383Z,18.73
2019-02-22T05:04:54.461Z,18.63
2019-02-22T05:09:58.640Z,17.97
2019-02-22T05:15:11.962Z,17.93
2019-02-22T05:20:08.542Z,14.70
2019-02-22T05:25:12.709Z,16.17
2019-02-22T05:30:16.900Z,17.47
2019-02-22T05:35:20.916Z,16.40
2019-02-22T05:40:24.975Z,19.23
2019-02-22T05:45:29.170Z,19.37
2019-02-22T05:50:33.307Z,18.63
2019-02-22T05:55:37.495Z,18.67
2019-02-22T06:00:41.530Z,28.27
2019-02-22T06:05:45.681Z,18.47
2019-02-22T06:10:49.816Z,21.40
2019-02-22T06:15:53.960Z,24.03
2019-02-22T06:20:57.981Z,25.37
2019-02-22T06:26:02.265Z,25.03
2019-02-22T06:31:06.636Z,25.47
2019-02-22T06:36:10.766Z,21.90
2019-02-22T06:41:14.887Z,28.63
2019-02-22T06:46:19.207Z,32.77
2019-02-22T06:51:23.351Z,35.53
2019-02-22T06:56:27.425Z,38.30
2019-02-22T07:01:31.500Z,37.53
2019-02-22T07:06:35.626Z,31.87
2019-02-22T07:11:39.771Z,36.93
2019-02-22T07:16:43.946Z,39.00
2019-02-22T07:21:52.427Z,40.07
2019-02-22T07:26:53.931Z,47.20
2019-02-22T07:32:05.792Z,53.53
2019-02-22T07:37:03.889Z,44.33
2019-02-22T07:42:07.988Z,50.83
2019-02-22T07:47:12.239Z,40.13
2019-02-22T07:52:16.475Z,42.93
2019-02-22T07:57:20.701Z,40.40
2019-02-22T08:02:24.930Z,42.27
2019-02-22T08:07:29.210Z,44.33
2019-02-22T08:12:33.280Z,50.03
2019-02-22T08:17:37.305Z,56.73
2019-02-22T08:22:41.498Z,51.77
2019-02-22T08:27:53.830Z,44.97
2019-02-22T08:32:51.440Z,54.23
2019-02-22T08:37:55.556Z,51.83
2019-02-22T08:42:59.684Z,46.27
2019-02-22T08:48:03.826Z,51.47
2019-02-22T08:53:07.932Z,46.33
2019-02-22T08:58:12.268Z,42.57
2019-02-22T09:03:16.466Z,45.27
2019-02-22T09:08:23.917Z,35.13
2019-02-22T09:13:28.465Z,34.30
2019-02-22T09:18:32.452Z,34.80
2019-02-22T09:23:36.566Z,40.23
2019-02-22T09:28:41.229Z,34.07
2019-02-22T09:33:45.376Z,31.80
2019-02-22T09:38:49.443Z,34.57
2019-02-22T09:43:55.623Z,31.87
2019-02-22T09:48:59.290Z,30.33
2019-02-22T09:54:03.627Z,38.30
2019-02-22T09:59:07.752Z,38.63
2019-02-22T10:04:11.844Z,34.40
2019-02-22T10:09:19.135Z,31.37
2019-02-22T10:14:23.316Z,26.87
2019-02-22T10:19:27.452Z,32.10
2019-02-22T10:24:31.672Z,35.43
2019-02-22T10:29:35.880Z,28.47
2019-02-22T10:34:39.971Z,39.50
2019-02-22T10:39:44.171Z,29.67
2019-02-22T10:44:51.335Z,33.93
2019-02-22T10:49:55.614Z,35.93
2019-02-22T10:54:59.888Z,38.37
2019-02-22T11:00:04.650Z,35.50
2019-02-22T11:05:08.815Z,35.77
2019-02-22T11:10:13.560Z,35.00
2019-02-22T11:15:17.872Z,32.77
2019-02-22T11:20:21.891Z,51.60
2019-02-22T11:25:26.032Z,40.50
2019-02-22T11:30:30.092Z,35.73
2019-02-22T11:35:34.192Z,35.83
2019-02-22T11:40:38.313Z,35.90
2019-02-22T11:45:42.486Z,32.20
2019-02-22T11:50:47.066Z,37.17
2019-02-22T11:55:51.631Z,44.10
2019-02-22T12:00:55.890Z,33.53
2019-02-22T12:06:00.448Z,28.97
2019-02-22T12:11:04.910Z,32.43
2019-02-22T12:16:09.052Z,33.43
2019-02-22T12:21:13.229Z,28.80
2019-02-22T12:26:17.511Z,29.17
2019-02-22T12:31:22.971Z,28.90
2019-02-22T12:36:27.092Z,35.33
2019-02-22T12:41:31.339Z,35.03
2019-02-22T12:46:35.598Z,30.30
2019-02-22T12:51:42.151Z,29.97
2019-02-22T12:56:57.004Z,38.30
2019-02-22T13:01:52.133Z,28.90
2019-02-22T13:06:56.471Z,33.97
2019-02-22T13:12:00.612Z,47.03
2019-02-22T13:17:05.132Z,34.67
2019-02-22T13:22:09.688Z,31.23
2019-02-22T13:27:16.066Z,27.60
2019-02-22T13:32:20.439Z,29.10
2019-02-22T13:37:25.462Z,24.53
2019-02-22T13:42:32.566Z,28.33
2019-02-22T13:47:36.927Z,27.23
2019-02-22T13:52:42.265Z,25.37
2019-02-22T13:57:46.672Z,23.83
2019-02-22T14:02:50.798Z,36.00
2019-02-22T14:07:55.772Z,28.80
2019-02-22T14:13:00.071Z,31.80
2019-02-22T14:18:04.308Z,31.97
2019-02-22T14:23:08.432Z,32.33
2019-02-22T14:28:12.699Z,33.40
2019-02-22T14:33:17.238Z,32.80
2019-02-22T14:38:24.090Z,30.60
2019-02-22T14:43:27.311Z,34.50
2019-02-22T14:48:31.371Z,32.67
2019-02-22T14:53:35.826Z,29.97
2019-02-22T14:58:39.862Z,30.30
2019-02-22T15:03:44.034Z,36.13
2019-02-22T15:08:48.238Z,31.10
2019-02-22T15:13:52.634Z,34.13
2019-02-22T15:18:56.783Z,32.43
2019-02-22T15:24:01.298Z,29.57
2019-02-22T15:29:05.736Z,36.53
2019-02-22T15:34:09.999Z,33.13
2019-02-22T15:39:14.226Z,36.03
2019-02-22T15:44:21.638Z,36.80
2019-02-22T15:49:26.129Z,29.73
2019-02-22T15:54:30.821Z,30.33
2019-02-22T15:59:34.979Z,30.53
2019-02-22T16:04:39.060Z,35.53
2019-02-22T16:09:43.199Z,31.30
2019-02-22T16:14:47.380Z,38.37
2019-02-22T16:19:51.681Z,39.93
2019-02-22T16:24:55.903Z,37.13
2019-02-22T16:30:00.419Z,42.27
2019-02-22T16:35:04.978Z,37.17
2019-02-22T16:40:10.941Z,40.57
2019-02-22T16:45:15.334Z,41.67
2019-02-22T16:50:22.319Z,49.10
2019-02-22T16:55:26.699Z,48.30
2019-02-22T17:00:30.698Z,56.73
2019-02-22T17:05:34.905Z,59.03
2019-02-22T17:10:39.398Z,54.83
2019-02-22T17:15:43.674Z,57.20
2019-02-22T17:20:48.044Z,54.27
2019-02-22T17:25:52.334Z,52.50
2019-02-22T17:30:56.671Z,48.50
2019-02-22T17:36:00.859Z,46.67
2019-02-22T17:41:04.899Z,47.43
2019-02-22T17:46:09.324Z,53.83
2019-02-22T17:51:13.439Z,52.97
2019-02-22T17:56:17.686Z,62.23
2019-02-22T18:01:21.999Z,55.93
2019-02-22T18:06:26.219Z,60.93
2019-02-22T18:11:30.524Z,60.73
2019-02-22T18:16:35.771Z,65.00
2019-02-22T18:21:39.887Z,65.07
2019-02-22T18:26:44.330Z,59.90
2019-02-22T18:31:48.702Z,71.13
2019-02-22T18:36:52.749Z,62.93
2019-02-22T18:41:56.993Z,65.50
2019-02-22T18:47:01.161Z,68.33
2019-02-22T18:52:05.460Z,67.47
2019-02-22T18:57:09.844Z,74.50
2019-02-22T19:02:14.160Z,77.70
2019-02-22T19:07:18.300Z,78.47
2019-02-22T19:12:22.841Z,75.93
2019-02-22T19:17:30.313Z,77.93
2019-02-22T19:22:32.910Z,84.53
2019-02-22T19:27:37.161Z,78.63
2019-02-22T19:32:41.700Z,100.57
2019-02-22T19:37:45.841Z,81.87
2019-02-22T19:42:49.954Z,79.60
2019-02-22T19:47:54.256Z,85.87
2019-02-22T19:52:58.730Z,74.23
2019-02-22T19:58:03.033Z,81.23
2019-02-22T20:03:07.218Z,76.63
2019-02-22T20:08:12.474Z,78.50
2019-02-22T20:13:16.628Z,77.60
2019-02-22T20:18:21.046Z,88.07
2019-02-22T20:23:26.435Z,85.90
2019-02-22T20:28:30.883Z,86.37
2019-02-22T20:33:35.158Z,82.63
2019-02-22T20:38:39.286Z,83.60
2019-02-22T20:43:43.460Z,72.40
2019-02-22T20:49:00.332Z,86.57
2019-02-22T20:53:55.162Z,95.40
2019-02-22T20:58:59.377Z,85.87
2019-02-22T21:04:03.767Z,76.13
2019-02-22T21:09:07.998Z,76.93
2019-02-22T21:14:12.222Z,71.77
2019-02-22T21:19:16.361Z,74.30
2019-02-22T21:24:20.528Z,73.10
2019-02-22T21:29:24.762Z,73.07
2019-02-22T21:34:28.898Z,82.70
2019-02-22T21:39:33.221Z,80.30
2019-02-22T21:44:37.454Z,77.30
2019-02-22T21:49:41.629Z,65.37
2019-02-22T21:54:45.762Z,64.90
2019-02-22T21:59:50.707Z,63.90
2019-02-22T22:04:54.728Z,64.03
2019-02-22T22:09:58.968Z,57.60
2019-02-22T22:15:03.255Z,66.00
2019-02-22T22:20:07.878Z,55.67
2019-02-22T22:25:12.139Z,64.43
2019-02-22T22:30:16.557Z,61.20
2019-02-22T22:35:20.832Z,56.10
2019-02-22T22:40:24.853Z,53.20
2019-02-22T22:45:29.048Z,55.67
2019-02-22T22:50:33.217Z,47.13
2019-02-22T22:55:39.812Z,52.43
2019-02-22T23:00:48.887Z,43.13
2019-02-22T23:05:53.067Z,47.93
2019-02-22T23:10:57.302Z,43.73
2019-02-22T23:16:01.731Z,42.10
2019-02-22T23:21:05.972Z,44.00
2019-02-22T23:26:10.169Z,43.87
2019-02-22T23:31:14.215Z,39.10
2019-02-22T23:36:18.196Z,32.00
2019-02-22T23:41:24.983Z,33.70
2019-02-22T23:46:29.163Z,31.30
2019-02-22T23:51:33.391Z,36.30
2019-02-22T23:56:37.417Z,28.17
